createdAt,value
2023-05-10T00:01:31.860Z,3.00
2023-05-10T00:06:35.139Z,3.10
2023-05-10T00:11:37.551Z,3.60
2023-05-10T00:16:41.125Z,4.10
2023-05-10T00:21:44.401Z,2.80
2023-05-10T00:26:46.389Z,3.40
2023-05-10T00:31:50.383Z,3.20
2023-05-10T00:36:56.924Z,3.10
2023-05-10T00:42:02.242Z,3.30
2023-05-10T00:47:05.942Z,4.60
2023-05-10T00:52:10.377Z,3.00
2023-05-10T00:57:14.783Z,4.40
2023-05-10T01:02:17.663Z,3.30
2023-05-10T01:07:21.026Z,3.60
2023-05-10T01:12:23.420Z,3.50
2023-05-10T01:17:27.278Z,3.80
2023-05-10T01:23:19.411Z,4.50
2023-05-10T01:28:50.620Z,3.90
2023-05-10T01:34:02.809Z,4.00
2023-05-10T01:39:23.212Z,3.40
2023-05-10T01:44:55.088Z,3.70
2023-05-10T01:50:05.051Z,3.80
2023-05-10T01:55:14.469Z,4.10
2023-05-10T02:00:21.377Z,3.40
2023-05-10T02:05:25.848Z,3.80
2023-05-10T02:10:30.532Z,3.30
2023-05-10T02:15:34.977Z,3.10
2023-05-10T02:20:40.436Z,3.30
2023-05-10T02:25:45.318Z,3.90
2023-05-10T02:30:49.072Z,2.80
2023-05-10T02:35:53.824Z,3.70
2023-05-10T02:40:57.510Z,3.00
2023-05-10T02:46:00.088Z,3.60
2023-05-10T02:51:08.747Z,4.40
2023-05-10T02:56:16.883Z,3.30
2023-05-10T03:01:21.970Z,3.60
2023-05-10T03:06:27.228Z,2.90
2023-05-10T03:11:34.127Z,3.70
2023-05-10T03:16:54.737Z,2.90
2023-05-10T03:22:06.391Z,3.20
2023-05-10T03:27:11.876Z,3.80
2023-05-10T03:32:15.965Z,4.90
2023-05-10T03:37:18.946Z,3.10
2023-05-10T03:42:21.242Z,2.60
2023-05-10T03:47:24.214Z,3.90
2023-05-10T03:52:27.786Z,3.40
2023-05-10T03:57:32.063Z,3.10
2023-05-10T04:02:36.236Z,3.10
2023-05-10T04:07:40.495Z,3.30
2023-05-10T04:12:44.078Z,3.70
2023-05-10T04:17:48.353Z,3.60
2023-05-10T04:22:51.901Z,3.10
2023-05-10T04:27:57.659Z,2.90
2023-05-10T04:33:00.759Z,2.90
2023-05-10T04:38:03.977Z,2.90
2023-05-10T04:43:08.258Z,3.80
2023-05-10T04:48:12.555Z,3.30
2023-05-10T04:53:16.236Z,3.50
2023-05-10T04:58:20.073Z,2.00
2023-05-10T05:04:00.913Z,3.20
2023-05-10T05:09:04.208Z,3.00
2023-05-10T05:14:07.848Z,3.40
2023-05-10T05:19:11.625Z,3.10
2023-05-10T05:24:14.241Z,3.30
2023-05-10T05:29:17.820Z,3.70
2023-05-10T05:34:22.549Z,3.30
2023-05-10T05:39:25.727Z,3.30
2023-05-10T05:44:31.452Z,3.90
2023-05-10T05:49:34.576Z,3.50
2023-05-10T05:54:39.203Z,2.90
2023-05-10T05:59:45.290Z,3.20
2023-05-10T06:04:49.276Z,2.80
2023-05-10T06:09:52.588Z,4.20
2023-05-10T06:14:55.353Z,3.20
2023-05-10T06:19:58.369Z,2.70
2023-05-10T06:25:02.031Z,3.00
2023-05-10T06:30:12.764Z,3.70
2023-05-10T06:35:17.580Z,3.90
2023-05-10T06:40:21.361Z,3.20
2023-05-10T06:45:24.399Z,4.00
2023-05-10T06:50:26.751Z,3.40
2023-05-10T06:55:30.201Z,3.60
2023-05-10T07:00:33.215Z,3.40
2023-05-10T07:05:36.236Z,4.00
2023-05-10T07:10:40.149Z,3.00
2023-05-10T07:15:43.678Z,3.70
2023-05-10T07:20:50.037Z,3.20
2023-05-10T07:25:53.662Z,4.10
2023-05-10T07:30:56.204Z,3.20
2023-05-10T07:36:00.080Z,3.40
2023-05-10T07:41:06.472Z,3.80
2023-05-10T07:46:11.915Z,3.20
2023-05-10T07:51:15.469Z,3.00
2023-05-10T07:56:33.087Z,3.50
2023-05-10T08:01:35.949Z,2.60
2023-05-10T08:06:39.064Z,2.90
2023-05-10T08:11:41.815Z,3.00
2023-05-10T08:16:44.905Z,2.90
2023-05-10T08:21:48.525Z,3.50
2023-05-10T08:26:51.881Z,3.50
2023-05-10T08:31:54.186Z,2.20
2023-05-10T08:36:58.230Z,3.00
2023-05-10T08:42:05.359Z,3.80
2023-05-10T08:47:10.451Z,3.30
2023-05-10T08:52:16.595Z,3.40
2023-05-10T08:57:21.398Z,3.20
2023-05-10T09:02:24.380Z,4.00
2023-05-10T09:07:28.729Z,3.20
2023-05-10T09:12:32.565Z,2.10
2023-05-10T09:17:35.876Z,2.60
2023-05-10T09:22:39.175Z,3.50
2023-05-10T09:27:46.492Z,2.40
2023-05-10T09:32:49.574Z,2.50
2023-05-10T09:37:54.721Z,2.90
2023-05-10T09:43:11.677Z,2.80
2023-05-10T09:48:15.097Z,3.00
2023-05-10T09:53:17.655Z,2.70
2023-05-10T09:58:22.604Z,2.30
2023-05-10T10:03:28.922Z,2.70
2023-05-10T10:08:34.494Z,2.60
2023-05-10T10:13:41.349Z,2.10
2023-05-10T10:18:45.195Z,2.60
2023-05-10T10:23:48.501Z,2.60
2023-05-10T10:29:13.421Z,2.30
2023-05-10T10:34:31.639Z,2.10
2023-05-10T10:39:38.057Z,2.10
2023-05-10T10:44:43.026Z,2.20
2023-05-10T10:49:52.379Z,2.00
2023-05-10T10:55:04.836Z,2.60
2023-05-10T11:00:33.698Z,2.70
2023-05-10T11:05:41.368Z,2.20
2023-05-10T11:10:54.751Z,2.60
2023-05-10T11:16:00.860Z,2.30
2023-05-10T11:21:10.120Z,2.50
2023-05-10T11:26:14.387Z,2.90
2023-05-10T11:31:20.194Z,2.90
2023-05-10T11:36:26.850Z,2.40
2023-05-10T11:41:30.621Z,2.70
2023-05-10T11:46:33.139Z,2.50
2023-05-10T11:51:40.048Z,1.90
2023-05-10T11:56:45.589Z,2.20
2023-05-10T12:01:49.646Z,2.10
2023-05-10T12:06:54.204Z,2.50
2023-05-10T12:11:58.017Z,1.90
2023-05-10T12:17:01.321Z,2.20
2023-05-10T12:22:06.465Z,2.50
2023-05-10T12:27:10.234Z,2.90
2023-05-10T12:32:13.841Z,2.70
2023-05-10T12:37:17.392Z,2.60
2023-05-10T12:42:21.686Z,2.70
2023-05-10T12:47:25.645Z,2.90
2023-05-10T12:52:29.431Z,2.10
2023-05-10T12:57:32.553Z,2.00
2023-05-10T13:02:37.695Z,2.30
2023-05-10T13:07:42.168Z,2.70
2023-05-10T13:12:47.791Z,2.10
2023-05-10T13:17:51.856Z,2.30
2023-05-10T13:22:57.382Z,3.10
2023-05-10T13:28:03.577Z,2.40
2023-05-10T13:33:07.400Z,3.40
2023-05-10T13:38:10.132Z,2.30
2023-05-10T13:43:12.970Z,3.30
2023-05-10T13:48:16.448Z,2.70
2023-05-10T13:53:22.196Z,2.80
2023-05-10T13:58:24.629Z,2.30
2023-05-10T14:03:27.242Z,3.80
2023-05-10T14:08:30.561Z,3.10
2023-05-10T14:13:33.740Z,3.10
2023-05-10T14:18:36.991Z,2.40
2023-05-10T14:23:42.326Z,3.00
2023-05-10T14:28:46.416Z,2.50
2023-05-10T14:33:50.854Z,2.50
2023-05-10T14:38:54.654Z,2.90
2023-05-10T14:44:00.573Z,2.20
2023-05-10T14:49:03.869Z,2.60
2023-05-10T14:54:08.934Z,2.30
2023-05-10T14:59:12.459Z,2.40
2023-05-10T15:04:18.616Z,2.60
2023-05-10T15:09:28.687Z,2.50
2023-05-10T15:14:33.245Z,2.40
2023-05-10T15:19:36.722Z,2.30
2023-05-10T15:24:39.196Z,2.20
2023-05-10T15:29:41.388Z,2.70
2023-05-10T15:34:44.095Z,1.90
2023-05-10T15:39:46.417Z,3.10
2023-05-10T15:44:50.822Z,2.40
2023-05-10T15:49:54.894Z,2.50
2023-05-10T15:54:58.510Z,3.10
2023-05-10T16:00:01.878Z,2.30
2023-05-10T16:05:04.919Z,2.80
2023-05-10T16:10:11.135Z,2.30
2023-05-10T16:15:14.299Z,2.60
2023-05-10T16:20:16.283Z,2.10
2023-05-10T16:25:20.157Z,2.70
2023-05-10T16:30:24.968Z,2.20
2023-05-10T16:35:29.711Z,1.70
2023-05-10T16:40:34.964Z,2.10
2023-05-10T16:45:37.614Z,2.00
2023-05-10T16:50:44.653Z,2.20
2023-05-10T16:55:48.067Z,2.00
2023-05-10T17:00:53.753Z,2.60
2023-05-10T17:05:57.539Z,2.00
2023-05-10T17:11:05.127Z,1.80
2023-05-10T17:16:09.104Z,1.60
2023-05-10T17:21:14.785Z,2.80
2023-05-10T17:26:21.363Z,2.10
2023-05-10T17:31:29.895Z,2.30
2023-05-10T17:36:38.697Z,2.60
2023-05-10T17:41:42.891Z,2.10
2023-05-10T17:46:49.978Z,2.10
2023-05-10T17:51:55.066Z,2.70
2023-05-10T17:57:01.993Z,2.30
2023-05-10T18:02:05.352Z,2.00
2023-05-10T18:07:09.711Z,3.10
2023-05-10T18:12:13.004Z,3.30
2023-05-10T18:17:17.961Z,3.40
2023-05-10T18:22:23.199Z,3.20
2023-05-10T18:27:26.977Z,1.80
2023-05-10T18:32:31.854Z,2.50
2023-05-10T18:37:37.051Z,3.80
2023-05-10T18:42:39.517Z,2.90
2023-05-10T18:47:44.002Z,3.00
2023-05-10T18:52:52.917Z,4.70
2023-05-10T18:57:58.803Z,3.10
2023-05-10T19:03:03.352Z,4.10
2023-05-10T19:08:08.089Z,3.20
2023-05-10T19:13:10.782Z,3.60
2023-05-10T19:18:15.512Z,3.90
2023-05-10T19:23:18.446Z,3.10
2023-05-10T19:28:21.485Z,2.90
2023-05-10T19:33:25.183Z,3.90
2023-05-10T19:38:28.800Z,3.90
2023-05-10T19:43:40.171Z,3.10
2023-05-10T19:48:43.545Z,3.70
2023-05-10T19:53:47.360Z,4.10
2023-05-10T19:58:52.919Z,2.70
2023-05-10T20:03:56.910Z,2.90
2023-05-10T20:09:00.860Z,4.20
2023-05-10T20:14:04.626Z,3.80
2023-05-10T20:19:09.161Z,4.10
2023-05-10T20:24:12.564Z,3.30
2023-05-10T20:29:19.422Z,4.10
2023-05-10T20:39:26.369Z,4.30
2023-05-10T20:44:29.318Z,5.60
2023-05-10T20:49:38.130Z,4.80
2023-05-10T20:54:41.547Z,4.90
2023-05-10T20:59:44.601Z,5.30
2023-05-10T21:04:48.588Z,5.60
2023-05-10T21:09:53.557Z,5.10
2023-05-10T21:14:57.310Z,5.40
2023-05-10T21:20:01.587Z,5.80
2023-05-10T21:25:06.195Z,5.50
2023-05-10T21:30:11.049Z,4.30
2023-05-10T21:35:15.582Z,5.70
2023-05-10T21:40:19.540Z,5.70
2023-05-10T21:45:22.701Z,5.60
2023-05-10T21:50:25.140Z,6.00
2023-05-10T21:55:28.052Z,4.50
2023-05-10T22:00:34.180Z,5.30
2023-05-10T22:05:38.770Z,5.70
2023-05-10T22:10:42.999Z,5.10
2023-05-10T22:15:46.793Z,2.90
2023-05-10T22:20:50.959Z,3.10
2023-05-10T22:25:55.086Z,2.90
2023-05-10T22:30:58.784Z,2.20
2023-05-10T22:36:01.867Z,5.10
2023-05-10T22:41:04.614Z,3.80
2023-05-10T22:46:07.137Z,3.50
2023-05-10T22:51:10.507Z,3.60
2023-05-10T22:56:14.591Z,2.30
2023-05-10T23:01:17.470Z,3.40
2023-05-10T23:06:20.752Z,2.90
2023-05-10T23:11:24.515Z,2.50
2023-05-10T23:16:26.779Z,3.30
2023-05-10T23:21:32.006Z,3.20
2023-05-10T23:26:36.069Z,3.20
2023-05-10T23:31:45.266Z,3.00
2023-05-10T23:36:49.365Z,4.00
2023-05-10T23:41:52.087Z,3.20
2023-05-10T23:46:55.550Z,2.80
2023-05-10T23:51:58.742Z,4.30
2023-05-10T23:57:02.754Z,4.90
